createdAt,value
2023-02-04T00:01:45.309Z,-3.56
2023-02-04T00:04:13.660Z,-3.56
2023-02-04T00:06:42.537Z,-3.54
2023-02-04T00:09:10.748Z,-3.53
2023-02-04T00:11:41.223Z,-3.52
2023-02-04T00:14:09.613Z,-3.50
2023-02-04T00:16:37.830Z,-3.47
2023-02-04T00:19:06.104Z,-3.44
2023-02-04T00:21:35.063Z,-3.38
2023-02-04T00:24:04.273Z,-3.33
2023-02-04T00:26:32.444Z,-3.28
2023-02-04T00:29:00.853Z,-3.26
2023-02-04T00:31:29.495Z,-3.25
2023-02-04T00:33:59.722Z,-3.24
2023-02-04T00:36:27.760Z,-3.24
2023-02-04T00:38:56.166Z,-3.24
2023-02-04T00:41:24.522Z,-3.24
2023-02-04T00:43:52.900Z,-3.25
2023-02-04T00:46:21.059Z,-3.26
2023-02-04T00:48:49.746Z,-3.28
2023-02-04T00:51:17.974Z,-3.29
2023-02-04T00:53:46.301Z,-3.31
2023-02-04T00:56:14.456Z,-3.32
2023-02-04T00:58:43.169Z,-3.32
2023-02-04T01:01:11.522Z,-3.31
2023-02-04T01:03:39.736Z,-3.29
2023-02-04T01:06:08.206Z,-3.27
2023-02-04T01:08:36.985Z,-3.24
2023-02-04T01:11:05.484Z,-3.21
2023-02-04T01:13:34.268Z,-3.18
2023-02-04T01:16:03.019Z,-3.14
2023-02-04T01:18:32.651Z,-3.11
2023-02-04T01:21:01.050Z,-3.09
2023-02-04T01:23:29.649Z,-3.07
2023-02-04T01:25:58.231Z,-3.05
2023-02-04T01:28:27.518Z,-3.04
2023-02-04T01:30:56.139Z,-3.03
2023-02-04T01:33:24.901Z,-3.02
2023-02-04T01:35:53.999Z,-3.00
2023-02-04T01:38:22.379Z,-3.00
2023-02-04T01:40:50.964Z,-2.99
2023-02-04T01:43:22.493Z,-2.97
2023-02-04T01:45:51.338Z,-2.94
2023-02-04T01:48:20.634Z,-2.94
2023-02-04T01:50:54.112Z,-2.92
2023-02-04T01:53:25.262Z,-2.91
2023-02-04T01:55:53.534Z,-2.91
2023-02-04T01:58:21.982Z,-2.89
2023-02-04T02:00:51.363Z,-2.87
2023-02-04T02:03:19.705Z,-2.86
2023-02-04T02:05:52.301Z,-2.84
2023-02-04T02:08:20.797Z,-2.81
2023-02-04T02:10:48.973Z,-2.81
2023-02-04T02:13:19.274Z,-2.80
2023-02-04T02:15:47.786Z,-2.79
2023-02-04T02:18:20.125Z,-2.80
2023-02-04T02:20:48.717Z,-2.81
2023-02-04T02:23:26.302Z,-2.83
2023-02-04T02:25:54.679Z,-2.84
2023-02-04T02:28:23.475Z,-2.84
2023-02-04T02:30:51.922Z,-2.85
2023-02-04T02:33:20.864Z,-2.89
2023-02-04T02:35:49.127Z,-2.91
2023-02-04T02:38:18.394Z,-2.94
2023-02-04T02:40:48.241Z,-2.95
2023-02-04T02:43:17.643Z,-2.96
2023-02-04T02:45:46.098Z,-2.96
2023-02-04T02:48:14.811Z,-2.95
2023-02-04T02:50:42.992Z,-2.95
2023-02-04T02:53:18.876Z,-2.93
2023-02-04T02:55:47.529Z,-2.90
2023-02-04T02:58:30.012Z,-2.89
2023-02-04T03:00:58.666Z,-2.87
2023-02-04T03:03:28.804Z,-2.85
2023-02-04T03:06:18.027Z,-2.83
2023-02-04T03:08:47.039Z,-2.82
2023-02-04T03:11:15.959Z,-2.81
2023-02-04T03:13:44.800Z,-2.80
2023-02-04T03:16:13.081Z,-2.78
2023-02-04T03:18:41.683Z,-2.76
2023-02-04T03:21:11.956Z,-2.75
2023-02-04T03:23:40.477Z,-2.73
2023-02-04T03:26:08.964Z,-2.72
2023-02-04T03:28:41.172Z,-2.73
2023-02-04T03:31:09.676Z,-2.72
2023-02-04T03:33:37.819Z,-2.71
2023-02-04T03:36:06.978Z,-2.69
2023-02-04T03:38:37.930Z,-2.64
2023-02-04T03:41:06.249Z,-2.62
2023-02-04T03:43:34.693Z,-2.62
2023-02-04T03:46:02.889Z,-2.61
2023-02-04T03:48:31.444Z,-2.61
2023-02-04T03:50:59.837Z,-2.59
2023-02-04T03:53:28.220Z,-2.57
2023-02-04T03:55:56.488Z,-2.55
2023-02-04T03:58:24.968Z,-2.55
2023-02-04T04:00:53.556Z,-2.53
2023-02-04T04:03:21.933Z,-2.49
2023-02-04T04:05:50.560Z,-2.45
2023-02-04T04:08:19.535Z,-2.43
2023-02-04T04:10:48.003Z,-2.40
2023-02-04T04:13:16.383Z,-2.38
2023-02-04T04:15:45.669Z,-2.36
2023-02-04T04:18:14.168Z,-2.34
2023-02-04T04:20:42.502Z,-2.31
2023-02-04T04:23:10.833Z,-2.29
2023-02-04T04:25:39.376Z,-2.26
2023-02-04T04:28:08.286Z,-2.24
2023-02-04T04:30:37.159Z,-2.23
2023-02-04T04:33:06.604Z,-2.22
2023-02-04T04:35:37.123Z,-2.22
2023-02-04T04:38:05.299Z,-2.23
2023-02-04T04:40:34.172Z,-2.24
2023-02-04T04:43:03.093Z,-2.25
2023-02-04T04:45:31.562Z,-2.26
2023-02-04T04:47:59.854Z,-2.29
2023-02-04T04:50:28.325Z,-2.30
2023-02-04T04:52:56.702Z,-2.31
2023-02-04T04:55:25.090Z,-2.31
2023-02-04T04:57:53.676Z,-2.32
2023-02-04T05:00:22.155Z,-2.35
2023-02-04T05:02:50.542Z,-2.40
2023-02-04T05:05:18.899Z,-2.44
2023-02-04T05:07:47.230Z,-2.44
2023-02-04T05:10:16.206Z,-2.45
2023-02-04T05:12:44.601Z,-2.43
2023-02-04T05:15:15.517Z,-2.44
2023-02-04T05:17:43.891Z,-2.49
2023-02-04T05:20:12.350Z,-2.52
2023-02-04T05:22:41.271Z,-2.53
2023-02-04T05:25:09.590Z,-2.51
2023-02-04T05:27:37.928Z,-2.50
2023-02-04T05:30:06.524Z,-2.51
2023-02-04T05:32:35.846Z,-2.50
2023-02-04T05:35:05.611Z,-2.50
2023-02-04T05:37:34.468Z,-2.48
2023-02-04T05:40:03.314Z,-2.48
2023-02-04T05:42:32.110Z,-2.46
2023-02-04T05:45:00.557Z,-2.45
2023-02-04T05:47:29.269Z,-2.48
2023-02-04T05:49:57.960Z,-2.50
2023-02-04T05:52:26.443Z,-2.51
2023-02-04T05:54:58.102Z,-2.50
2023-02-04T05:57:27.143Z,-2.48
2023-02-04T05:59:55.302Z,-2.45
2023-02-04T06:02:24.067Z,-2.42
2023-02-04T06:04:52.541Z,-2.41
2023-02-04T06:07:21.261Z,-2.38
2023-02-04T06:09:49.710Z,-2.36
2023-02-04T06:12:18.105Z,-2.34
2023-02-04T06:14:46.265Z,-2.32
2023-02-04T06:17:18.028Z,-2.30
2023-02-04T06:19:46.320Z,-2.31
2023-02-04T06:22:17.655Z,-2.33
2023-02-04T06:24:49.823Z,-2.34
2023-02-04T06:27:23.559Z,-2.33
2023-02-04T06:29:54.812Z,-2.33
2023-02-04T06:32:23.372Z,-2.33
2023-02-04T06:34:51.747Z,-2.34
2023-02-04T06:37:20.531Z,-2.36
2023-02-04T06:39:48.581Z,-2.38
2023-02-04T06:42:16.967Z,-2.39
2023-02-04T06:44:45.052Z,-2.38
2023-02-04T06:47:16.307Z,-2.36
2023-02-04T06:49:44.524Z,-2.34
2023-02-04T06:52:13.038Z,-2.33
2023-02-04T06:54:44.451Z,-2.31
2023-02-04T06:57:12.636Z,-2.28
2023-02-04T06:59:43.363Z,-2.25
2023-02-04T07:02:12.614Z,-2.24
2023-02-04T07:04:51.174Z,-2.23
2023-02-04T07:10:18.529Z,-2.20
2023-02-04T07:13:06.744Z,-2.18
2023-02-04T07:15:35.818Z,-2.17
2023-02-04T07:18:04.466Z,-2.15
2023-02-04T07:20:33.051Z,-2.13
2023-02-04T07:23:01.554Z,-2.13
2023-02-04T07:25:29.810Z,-2.13
2023-02-04T07:27:59.523Z,-2.13
2023-02-04T07:30:27.924Z,-2.11
2023-02-04T07:32:56.364Z,-2.11
2023-02-04T07:35:24.784Z,-2.10
2023-02-04T07:37:52.997Z,-2.09
2023-02-04T07:40:28.946Z,-2.08
2023-02-04T07:42:57.886Z,-2.08
2023-02-04T07:45:28.317Z,-2.08
2023-02-04T07:47:56.597Z,-2.07
2023-02-04T07:50:25.481Z,-2.05
2023-02-04T07:52:53.764Z,-2.05
2023-02-04T07:55:21.948Z,-2.03
2023-02-04T07:57:50.315Z,-2.01
2023-02-04T08:00:19.351Z,-2.01
2023-02-04T08:02:48.488Z,-2.02
2023-02-04T08:05:16.951Z,-2.02
2023-02-04T08:07:45.676Z,-2.00
2023-02-04T08:10:13.841Z,-1.97
2023-02-04T08:12:42.166Z,-1.95
2023-02-04T08:15:10.612Z,-1.93
2023-02-04T08:17:39.422Z,-1.91
2023-02-04T08:20:09.857Z,-1.88
2023-02-04T08:22:38.597Z,-1.85
2023-02-04T08:25:07.619Z,-1.84
2023-02-04T08:27:36.212Z,-1.83
2023-02-04T08:30:10.581Z,-1.82
2023-02-04T08:32:43.923Z,-1.80
2023-02-04T08:35:12.849Z,-1.77
2023-02-04T08:37:41.093Z,-1.73
2023-02-04T08:40:11.031Z,-1.70
2023-02-04T08:42:39.491Z,-1.67
2023-02-04T08:45:08.154Z,-1.68
2023-02-04T08:47:37.807Z,-1.69
2023-02-04T08:50:07.610Z,-1.70
2023-02-04T08:52:36.913Z,-1.71
2023-02-04T08:55:06.226Z,-1.73
2023-02-04T08:57:35.226Z,-1.71
2023-02-04T09:00:04.004Z,-1.69
2023-02-04T09:02:36.670Z,-1.71
2023-02-04T09:05:05.352Z,-1.77
2023-02-04T09:07:33.975Z,-1.81
2023-02-04T09:10:02.163Z,-1.78
2023-02-04T09:12:30.617Z,-1.74
2023-02-04T09:14:58.668Z,-1.70
2023-02-04T09:17:26.854Z,-1.69
2023-02-04T09:19:54.934Z,-1.71
2023-02-04T09:22:23.169Z,-1.76
2023-02-04T09:24:51.521Z,-1.81
2023-02-04T09:27:20.194Z,-1.86
2023-02-04T09:29:48.376Z,-1.89
2023-02-04T09:32:16.865Z,-1.91
2023-02-04T09:34:45.078Z,-1.91
2023-02-04T09:37:13.225Z,-1.95
2023-02-04T09:39:41.737Z,-1.96
2023-02-04T09:42:13.370Z,-1.98
2023-02-04T09:44:41.763Z,-2.02
2023-02-04T09:47:10.283Z,-2.03
2023-02-04T09:49:38.712Z,-2.03
2023-02-04T09:52:10.926Z,-2.05
2023-02-04T09:54:39.062Z,-2.06
2023-02-04T09:57:18.366Z,-2.04
2023-02-04T09:59:46.720Z,-2.00
2023-02-04T10:02:24.636Z,-2.00
2023-02-04T10:04:57.741Z,-2.00
2023-02-04T10:07:27.496Z,-1.99
2023-02-04T10:09:56.241Z,-1.96
2023-02-04T10:12:24.676Z,-1.94
2023-02-04T10:14:52.909Z,-1.93
2023-02-04T10:17:22.150Z,-1.92
2023-02-04T10:19:50.369Z,-1.90
2023-02-04T10:22:20.444Z,-1.89
2023-02-04T10:24:49.252Z,-1.87
2023-02-04T10:27:17.764Z,-1.84
2023-02-04T10:29:59.117Z,-1.81
2023-02-04T10:32:32.223Z,-1.83
2023-02-04T10:35:02.082Z,-1.87
2023-02-04T10:37:32.300Z,-1.94
2023-02-04T10:40:00.659Z,-2.01
2023-02-04T10:42:30.125Z,-2.08
2023-02-04T10:44:58.685Z,-2.16
2023-02-04T10:47:31.073Z,-2.22
2023-02-04T10:50:05.453Z,-2.25
2023-02-04T10:52:38.749Z,-2.25
2023-02-04T10:55:20.949Z,-2.26
2023-02-04T10:57:50.131Z,-2.25
2023-02-04T11:00:21.663Z,-2.23
2023-02-04T11:03:03.550Z,-2.20
2023-02-04T11:05:33.938Z,-2.23
2023-02-04T11:08:03.031Z,-2.28
2023-02-04T11:10:33.583Z,-2.35
2023-02-04T11:13:05.139Z,-2.39
2023-02-04T11:16:24.096Z,-2.39
2023-02-04T11:19:02.204Z,-2.39
2023-02-04T11:21:33.126Z,-2.36
2023-02-04T11:24:16.627Z,-2.36
2023-02-04T11:26:46.026Z,-2.40
2023-02-04T11:29:17.325Z,-2.42
2023-02-04T11:31:57.827Z,-2.41
2023-02-04T11:34:28.081Z,-2.38
2023-02-04T11:36:59.582Z,-2.34
2023-02-04T11:39:42.643Z,-2.25
2023-02-04T11:42:40.523Z,-2.15
2023-02-04T11:45:28.989Z,-2.06
2023-02-04T11:47:58.928Z,-2.00
2023-02-04T11:50:30.734Z,-1.95
2023-02-04T11:52:59.708Z,-1.93
2023-02-04T11:55:29.817Z,-1.90
2023-02-04T11:57:58.573Z,-1.85
2023-02-04T12:00:31.439Z,-1.81
2023-02-04T12:03:12.098Z,-1.79
2023-02-04T12:05:41.116Z,-1.79
2023-02-04T12:08:11.833Z,-1.79
2023-02-04T12:10:47.389Z,-1.83
2023-02-04T12:13:23.650Z,-1.84
2023-02-04T12:16:04.784Z,-1.81
2023-02-04T12:18:34.231Z,-1.77
2023-02-04T12:21:04.555Z,-1.72
2023-02-04T12:23:32.758Z,-1.68
2023-02-04T12:26:01.160Z,-1.64
2023-02-04T12:28:29.852Z,-1.61
2023-02-04T12:30:58.864Z,-1.58
2023-02-04T12:33:27.281Z,-1.56
2023-02-04T12:35:55.825Z,-1.55
2023-02-04T12:38:24.621Z,-1.56
2023-02-04T12:40:52.811Z,-1.58
2023-02-04T12:43:21.466Z,-1.58
2023-02-04T12:45:50.290Z,-1.60
2023-02-04T12:48:18.523Z,-1.61
2023-02-04T12:50:49.196Z,-1.62
2023-02-04T12:53:17.486Z,-1.64
2023-02-04T12:55:46.016Z,-1.66
2023-02-04T12:58:14.114Z,-1.67
2023-02-04T13:00:42.402Z,-1.68
2023-02-04T13:03:11.436Z,-1.68
2023-02-04T16:16:25.485Z,-3.40
2023-02-04T16:18:54.081Z,-3.28
2023-02-04T16:21:22.274Z,-3.30
2023-02-04T16:23:50.891Z,-3.31
2023-02-04T16:26:19.270Z,-3.35
2023-02-04T16:28:48.009Z,-3.37
2023-02-04T16:31:19.462Z,-3.40
2023-02-04T16:33:48.303Z,-3.42
2023-02-04T16:36:18.462Z,-3.45
2023-02-04T16:38:47.465Z,-3.46
2023-02-04T16:41:16.307Z,-3.49
2023-02-04T16:43:45.202Z,-3.50
2023-02-04T16:46:20.062Z,-3.52
2023-02-04T16:48:48.810Z,-3.55
2023-02-04T16:51:20.794Z,-3.58
2023-02-04T16:53:50.559Z,-3.59
2023-02-04T16:56:18.783Z,-3.61
2023-02-04T16:58:47.580Z,-3.61
2023-02-04T17:01:17.409Z,-3.61
2023-02-04T17:03:45.649Z,-3.60
2023-02-04T17:06:16.534Z,-3.62
2023-02-04T17:08:44.987Z,-3.64
2023-02-04T17:11:32.699Z,-3.64
2023-02-04T17:14:08.722Z,-3.65
2023-02-04T17:16:38.941Z,-3.65
2023-02-04T17:19:09.643Z,-3.67
2023-02-04T17:21:39.471Z,-3.70
2023-02-04T17:24:08.349Z,-3.71
2023-02-04T17:26:38.203Z,-3.72
2023-02-04T17:29:07.889Z,-3.73
2023-02-04T17:31:36.431Z,-3.76
2023-02-04T17:34:05.566Z,-3.77
2023-02-04T17:36:33.751Z,-3.78
2023-02-04T17:39:02.226Z,-3.79
2023-02-04T17:41:31.030Z,-3.78
2023-02-04T17:44:03.643Z,-3.79
2023-02-04T17:46:32.098Z,-3.80
2023-02-04T17:49:00.289Z,-3.81
2023-02-04T17:51:28.929Z,-3.81
2023-02-04T17:53:57.416Z,-3.83
2023-02-04T17:56:28.447Z,-3.83
2023-02-04T17:58:56.975Z,-3.85
2023-02-04T18:01:26.010Z,-3.88
2023-02-04T18:03:54.911Z,-3.89
2023-02-04T18:06:27.318Z,-3.88
2023-02-04T18:09:01.725Z,-3.90
2023-02-04T18:11:33.177Z,-3.92
2023-02-04T18:14:05.239Z,-3.93
2023-02-04T18:16:34.748Z,-3.96
2023-02-04T18:19:15.882Z,-3.97
2023-02-04T18:21:44.202Z,-4.00
2023-02-04T18:24:18.402Z,-4.02
2023-02-04T18:26:48.863Z,-4.03
2023-02-04T18:29:33.266Z,-4.04
2023-02-04T18:32:13.083Z,-4.06
2023-02-04T18:34:46.844Z,-4.07
2023-02-04T18:37:37.049Z,-4.10
2023-02-04T18:40:11.906Z,-4.16
2023-02-04T18:42:42.063Z,-4.18
2023-02-04T18:45:30.280Z,-4.20
2023-02-04T18:48:00.326Z,-4.21
2023-02-04T18:50:29.956Z,-4.23
2023-02-04T18:53:22.691Z,-4.25
2023-02-04T18:55:55.547Z,-4.27
2023-02-04T18:58:27.074Z,-4.27
2023-02-04T19:00:59.694Z,-4.29
2023-02-04T19:03:33.554Z,-4.31
2023-02-04T19:06:02.622Z,-4.34
2023-02-04T19:08:43.132Z,-4.34
2023-02-04T19:11:47.260Z,-4.38
2023-02-04T19:14:35.050Z,-4.40
2023-02-04T19:17:26.210Z,-4.42
2023-02-04T19:20:07.568Z,-4.43
2023-02-04T19:22:49.822Z,-4.44
2023-02-04T19:25:35.727Z,-4.45
2023-02-04T19:28:32.991Z,-4.48
2023-02-04T19:31:01.517Z,-4.52
2023-02-04T19:33:39.281Z,-4.55
2023-02-04T19:36:15.068Z,-4.58
2023-02-04T19:38:45.336Z,-4.60
2023-02-04T19:41:26.704Z,-4.62
2023-02-04T19:44:18.537Z,-4.65
2023-02-04T19:46:46.705Z,-4.68
2023-02-04T19:49:23.744Z,-4.71
2023-02-04T19:51:54.422Z,-4.74
2023-02-04T19:54:25.313Z,-4.76
2023-02-04T19:56:54.518Z,-4.78
2023-02-04T19:59:27.027Z,-4.80
2023-02-04T20:02:34.905Z,-4.83
2023-02-04T20:05:03.307Z,-4.85
2023-02-04T20:07:32.405Z,-4.88
2023-02-04T20:10:30.495Z,-4.91
2023-02-04T20:13:00.316Z,-4.94
2023-02-04T20:15:28.941Z,-4.96
2023-02-04T20:17:57.077Z,-4.98
2023-02-04T20:20:30.611Z,-5.00
2023-02-04T20:23:02.771Z,-5.03
2023-02-04T20:25:37.084Z,-5.03
2023-02-04T20:28:20.458Z,-5.06
2023-02-04T20:30:50.439Z,-5.07
2023-02-04T20:33:25.457Z,-5.08
2023-02-04T20:36:22.306Z,-5.10
2023-02-04T20:38:50.413Z,-5.13
2023-02-04T20:41:21.793Z,-5.15
2023-02-04T20:43:50.319Z,-5.16
2023-02-04T20:46:24.598Z,-5.18
2023-02-04T20:48:52.808Z,-5.20
2023-02-04T20:51:24.174Z,-5.24
2023-02-04T20:53:53.845Z,-5.26
2023-02-04T20:56:35.370Z,-5.30
2023-02-04T20:59:13.071Z,-5.34
2023-02-04T21:01:44.278Z,-5.38
2023-02-04T21:04:34.413Z,-5.42
2023-02-04T21:07:11.043Z,-5.44
2023-02-04T21:09:40.540Z,-5.46
2023-02-04T21:12:09.114Z,-5.47
2023-02-04T21:14:37.346Z,-5.49
2023-02-04T21:17:05.524Z,-5.51
2023-02-04T21:19:35.438Z,-5.50
2023-02-04T21:22:03.592Z,-5.53
2023-02-04T21:24:32.148Z,-5.55
2023-02-04T21:27:00.517Z,-5.55
2023-02-04T21:29:28.990Z,-5.55
2023-02-04T21:31:57.571Z,-5.54
2023-02-04T21:34:25.821Z,-5.56
2023-02-04T21:36:54.362Z,-5.59
2023-02-04T21:39:22.777Z,-5.60
2023-02-04T21:42:10.333Z,-5.62
2023-02-04T21:44:39.235Z,-5.66
2023-02-04T21:47:08.413Z,-5.70
2023-02-04T21:49:39.072Z,-5.72
2023-02-04T21:52:08.615Z,-5.74
2023-02-04T21:54:36.666Z,-5.78
2023-02-04T21:57:05.197Z,-5.80
2023-02-04T21:59:33.520Z,-5.83
2023-02-04T22:02:01.912Z,-5.86
2023-02-04T22:04:30.455Z,-5.86
2023-02-04T22:06:59.128Z,-5.87
2023-02-04T22:09:27.400Z,-5.88
2023-02-04T22:11:55.487Z,-5.90
2023-02-04T22:14:44.546Z,-5.91
2023-02-04T22:17:12.668Z,-5.92
2023-02-04T22:19:40.867Z,-5.93
2023-02-04T22:22:09.184Z,-5.90
2023-02-04T22:24:37.526Z,-5.87
2023-02-04T22:27:06.105Z,-5.85
2023-02-04T22:29:34.569Z,-5.82
2023-02-04T22:32:02.818Z,-5.83
2023-02-04T22:34:31.659Z,-5.82
2023-02-04T22:37:00.180Z,-5.79
2023-02-04T22:39:28.310Z,-5.77
2023-02-04T22:41:56.459Z,-5.75
2023-02-04T22:44:25.060Z,-5.76
2023-02-04T22:46:53.887Z,-5.74
2023-02-04T22:49:22.304Z,-5.72
2023-02-04T22:51:50.493Z,-5.68
2023-02-04T22:54:18.566Z,-5.63
2023-02-04T22:56:47.358Z,-5.59
2023-02-04T22:59:15.566Z,-5.57
2023-02-04T23:01:43.989Z,-5.55
2023-02-04T23:04:12.176Z,-5.58
2023-02-04T23:06:40.226Z,-5.58
2023-02-04T23:09:08.915Z,-5.57
2023-02-04T23:11:37.392Z,-5.54
2023-02-04T23:14:06.191Z,-5.52
2023-02-04T23:16:35.283Z,-5.49
2023-02-04T23:19:03.719Z,-5.48
2023-02-04T23:21:33.750Z,-5.52
2023-02-04T23:24:02.058Z,-5.51
2023-02-04T23:26:30.309Z,-5.47
2023-02-04T23:29:00.903Z,-5.45
2023-02-04T23:31:29.247Z,-5.42
2023-02-04T23:33:57.753Z,-5.40
2023-02-04T23:36:25.855Z,-5.38
2023-02-04T23:38:54.066Z,-5.37
2023-02-04T23:41:22.199Z,-5.38
2023-02-04T23:43:50.255Z,-5.36
2023-02-04T23:46:18.400Z,-5.33
2023-02-04T23:48:46.494Z,-5.30
2023-02-04T23:51:14.560Z,-5.28
2023-02-04T23:53:42.640Z,-5.30
2023-02-04T23:56:10.723Z,-5.30
2023-02-04T23:58:39.332Z,-5.32
